sensor_id;sensor_type;location;lat;lon;timestamp;P1;durP1;ratioP1;P2;durP2;ratioP2
57067;SDS011;43391;47.448;18.904;2022-09-28T00:00:59;2.83;;;1.20;;
57067;SDS011;43391;47.448;18.904;2022-09-28T00:03:29;3.65;;;1.52;;
57067;SDS011;43391;47.448;18.904;2022-09-28T00:05:59;2.60;;;1.40;;
57067;SDS011;43391;47.448;18.904;2022-09-28T00:08:25;2.95;;;1.30;;
57067;SDS011;43391;47.448;18.904;2022-09-28T00:10:53;1.55;;;1.33;;
57067;SDS011;43391;47.448;18.904;2022-09-28T00:13:20;2.17;;;1.60;;
57067;SDS011;43391;47.448;18.904;2022-09-28T00:15:45;2.13;;;1.75;;
57067;SDS011;43391;47.448;18.904;2022-09-28T00:18:11;1.85;;;1.40;;
57067;SDS011;43391;47.448;18.904;2022-09-28T00:20:36;2.60;;;1.42;;
57067;SDS011;43391;47.448;18.904;2022-09-28T00:23:01;1.85;;;1.52;;
57067;SDS011;43391;47.448;18.904;2022-09-28T00:25:27;1.40;;;1.30;;
57067;SDS011;43391;47.448;18.904;2022-09-28T00:27:53;2.67;;;1.20;;
57067;SDS011;43391;47.448;18.904;2022-09-28T00:30:21;2.90;;;1.40;;
57067;SDS011;43391;47.448;18.904;2022-09-28T00:32:46;2.53;;;1.25;;
57067;SDS011;43391;47.448;18.904;2022-09-28T00:35:12;2.67;;;1.25;;
57067;SDS011;43391;47.448;18.904;2022-09-28T00:37:37;2.88;;;1.27;;
57067;SDS011;43391;47.448;18.904;2022-09-28T00:40:03;0.90;;;0.90;;
57067;SDS011;43391;47.448;18.904;2022-09-28T00:42:29;4.38;;;1.30;;
57067;SDS011;43391;47.448;18.904;2022-09-28T00:44:55;1.10;;;1.00;;
57067;SDS011;43391;47.448;18.904;2022-09-28T00:55:29;2.33;;;1.17;;
57067;SDS011;43391;47.448;18.904;2022-09-28T00:58:01;1.65;;;1.35;;
57067;SDS011;43391;47.448;18.904;2022-09-28T01:00:29;3.00;;;1.10;;
57067;SDS011;43391;47.448;18.904;2022-09-28T01:02:55;1.08;;;0.98;;
57067;SDS011;43391;47.448;18.904;2022-09-28T01:05:21;1.67;;;1.20;;
57067;SDS011;43391;47.448;18.904;2022-09-28T01:07:48;1.17;;;1.00;;
57067;SDS011;43391;47.448;18.904;2022-09-28T01:10:14;1.50;;;1.15;;
57067;SDS011;43391;47.448;18.904;2022-09-28T01:12:40;1.67;;;1.13;;
57067;SDS011;43391;47.448;18.904;2022-09-28T01:15:05;2.22;;;1.20;;
57067;SDS011;43391;47.448;18.904;2022-09-28T01:25:39;1.10;;;1.00;;
57067;SDS011;43391;47.448;18.904;2022-09-28T01:28:15;2.67;;;1.20;;
57067;SDS011;43391;47.448;18.904;2022-09-28T01:30:50;2.03;;;1.20;;
57067;SDS011;43391;47.448;18.904;2022-09-28T01:33:21;1.08;;;0.80;;
57067;SDS011;43391;47.448;18.904;2022-09-28T01:35:55;1.02;;;0.90;;
57067;SDS011;43391;47.448;18.904;2022-09-28T01:38:30;2.22;;;1.10;;
57067;SDS011;43391;47.448;18.904;2022-09-28T01:41:01;1.33;;;1.10;;
57067;SDS011;43391;47.448;18.904;2022-09-28T01:43:29;1.80;;;1.05;;
57067;SDS011;43391;47.448;18.904;2022-09-28T01:49:25;2.63;;;1.10;;
57067;SDS011;43391;47.448;18.904;2022-09-28T01:51:31;1.15;;;1.05;;
57067;SDS011;43391;47.448;18.904;2022-09-28T01:54:00;2.45;;;1.30;;
57067;SDS011;43391;47.448;18.904;2022-09-28T01:56:33;2.22;;;1.20;;
57067;SDS011;43391;47.448;18.904;2022-09-28T01:59:08;2.33;;;1.02;;
57067;SDS011;43391;47.448;18.904;2022-09-28T02:01:46;3.22;;;1.23;;
57067;SDS011;43391;47.448;18.904;2022-09-28T02:04:17;1.58;;;1.10;;
57067;SDS011;43391;47.448;18.904;2022-09-28T02:06:53;2.10;;;1.20;;
57067;SDS011;43391;47.448;18.904;2022-09-28T02:09:27;1.25;;;0.98;;
57067;SDS011;43391;47.448;18.904;2022-09-28T02:11:59;3.72;;;1.00;;
57067;SDS011;43391;47.448;18.904;2022-09-28T02:14:29;1.40;;;1.15;;
57067;SDS011;43391;47.448;18.904;2022-09-28T02:16:54;1.33;;;1.23;;
57067;SDS011;43391;47.448;18.904;2022-09-28T02:19:22;2.17;;;1.13;;
57067;SDS011;43391;47.448;18.904;2022-09-28T02:24:22;1.83;;;1.00;;
57067;SDS011;43391;47.448;18.904;2022-09-28T02:27:01;1.25;;;1.08;;
57067;SDS011;43391;47.448;18.904;2022-09-28T02:29:32;1.20;;;1.10;;
57067;SDS011;43391;47.448;18.904;2022-09-28T02:31:58;1.98;;;1.17;;
57067;SDS011;43391;47.448;18.904;2022-09-28T02:34:24;2.65;;;1.20;;
57067;SDS011;43391;47.448;18.904;2022-09-28T02:36:49;1.00;;;1.00;;
57067;SDS011;43391;47.448;18.904;2022-09-28T02:39:15;1.73;;;1.30;;
57067;SDS011;43391;47.448;18.904;2022-09-28T02:44:40;1.30;;;0.85;;
57067;SDS011;43391;47.448;18.904;2022-09-28T02:52:56;0.90;;;0.90;;
57067;SDS011;43391;47.448;18.904;2022-09-28T02:58:37;1.58;;;1.00;;
57067;SDS011;43391;47.448;18.904;2022-09-28T03:04:20;1.75;;;1.20;;
57067;SDS011;43391;47.448;18.904;2022-09-28T03:06:59;1.23;;;1.08;;
57067;SDS011;43391;47.448;18.904;2022-09-28T03:12:07;1.73;;;1.23;;
57067;SDS011;43391;47.448;18.904;2022-09-28T03:14:36;2.08;;;1.08;;
57067;SDS011;43391;47.448;18.904;2022-09-28T03:17:02;3.33;;;1.08;;
57067;SDS011;43391;47.448;18.904;2022-09-28T03:19:28;0.90;;;0.90;;
57067;SDS011;43391;47.448;18.904;2022-09-28T03:21:56;1.73;;;1.05;;
57067;SDS011;43391;47.448;18.904;2022-09-28T03:24:23;2.55;;;1.23;;
57067;SDS011;43391;47.448;18.904;2022-09-28T03:26:48;1.08;;;1.00;;
57067;SDS011;43391;47.448;18.904;2022-09-28T03:29:13;1.38;;;0.82;;
57067;SDS011;43391;47.448;18.904;2022-09-28T03:31:39;5.43;;;2.55;;
57067;SDS011;43391;47.448;18.904;2022-09-28T03:34:04;3.17;;;1.80;;
57067;SDS011;43391;47.448;18.904;2022-09-28T03:36:30;3.70;;;2.40;;
57067;SDS011;43391;47.448;18.904;2022-09-28T03:38:55;5.28;;;3.10;;
57067;SDS011;43391;47.448;18.904;2022-09-28T03:41:22;3.63;;;2.20;;
57067;SDS011;43391;47.448;18.904;2022-09-28T03:43:48;2.83;;;2.17;;
57067;SDS011;43391;47.448;18.904;2022-09-28T03:46:13;4.75;;;2.45;;
57067;SDS011;43391;47.448;18.904;2022-09-28T03:48:39;3.20;;;2.22;;
57067;SDS011;43391;47.448;18.904;2022-09-28T03:51:05;5.70;;;2.80;;
57067;SDS011;43391;47.448;18.904;2022-09-28T03:53:33;7.80;;;2.75;;
57067;SDS011;43391;47.448;18.904;2022-09-28T03:58:28;9.00;;;7.47;;
57067;SDS011;43391;47.448;18.904;2022-09-28T04:00:54;9.57;;;6.72;;
57067;SDS011;43391;47.448;18.904;2022-09-28T04:03:24;7.63;;;5.97;;
57067;SDS011;43391;47.448;18.904;2022-09-28T04:05:50;3.72;;;2.10;;
57067;SDS011;43391;47.448;18.904;2022-09-28T04:08:17;5.05;;;1.90;;
57067;SDS011;43391;47.448;18.904;2022-09-28T04:10:43;9.07;;;2.33;;
57067;SDS011;43391;47.448;18.904;2022-09-28T04:13:09;3.47;;;1.80;;
57067;SDS011;43391;47.448;18.904;2022-09-28T04:15:34;3.55;;;1.58;;
57067;SDS011;43391;47.448;18.904;2022-09-28T04:18:02;3.00;;;1.40;;
57067;SDS011;43391;47.448;18.904;2022-09-28T04:20:27;2.80;;;1.83;;
57067;SDS011;43391;47.448;18.904;2022-09-28T04:22:52;2.17;;;1.40;;
57067;SDS011;43391;47.448;18.904;2022-09-28T04:25:18;2.38;;;1.60;;
57067;SDS011;43391;47.448;18.904;2022-09-28T04:27:43;3.22;;;1.60;;
57067;SDS011;43391;47.448;18.904;2022-09-28T04:30:27;4.05;;;2.10;;
57067;SDS011;43391;47.448;18.904;2022-09-28T04:32:52;4.38;;;2.00;;
57067;SDS011;43391;47.448;18.904;2022-09-28T04:35:18;5.35;;;2.13;;
57067;SDS011;43391;47.448;18.904;2022-09-28T04:37:43;3.60;;;1.85;;
57067;SDS011;43391;47.448;18.904;2022-09-28T04:40:09;3.08;;;2.30;;
57067;SDS011;43391;47.448;18.904;2022-09-28T04:42:34;4.97;;;1.80;;
57067;SDS011;43391;47.448;18.904;2022-09-28T04:45:00;3.45;;;1.70;;
57067;SDS011;43391;47.448;18.904;2022-09-28T04:47:28;3.08;;;1.83;;
57067;SDS011;43391;47.448;18.904;2022-09-28T04:49:53;3.40;;;1.60;;
57067;SDS011;43391;47.448;18.904;2022-09-28T04:52:19;3.38;;;1.65;;
57067;SDS011;43391;47.448;18.904;2022-09-28T04:54:44;3.00;;;1.80;;
57067;SDS011;43391;47.448;18.904;2022-09-28T04:57:09;4.13;;;1.70;;
57067;SDS011;43391;47.448;18.904;2022-09-28T04:59:35;3.90;;;1.83;;
57067;SDS011;43391;47.448;18.904;2022-09-28T05:02:01;3.15;;;2.30;;
57067;SDS011;43391;47.448;18.904;2022-09-28T05:04:27;6.22;;;2.38;;
57067;SDS011;43391;47.448;18.904;2022-09-28T05:06:54;2.33;;;1.77;;
57067;SDS011;43391;47.448;18.904;2022-09-28T05:09:19;3.13;;;1.92;;
57067;SDS011;43391;47.448;18.904;2022-09-28T05:11:45;2.92;;;1.85;;
57067;SDS011;43391;47.448;18.904;2022-09-28T05:14:12;5.95;;;2.17;;
57067;SDS011;43391;47.448;18.904;2022-09-28T05:16:38;6.72;;;2.08;;
57067;SDS011;43391;47.448;18.904;2022-09-28T05:19:03;5.10;;;2.20;;
57067;SDS011;43391;47.448;18.904;2022-09-28T05:21:30;5.07;;;2.40;;
57067;SDS011;43391;47.448;18.904;2022-09-28T05:23:55;3.65;;;1.95;;
57067;SDS011;43391;47.448;18.904;2022-09-28T05:26:22;5.72;;;2.50;;
57067;SDS011;43391;47.448;18.904;2022-09-28T05:28:48;5.03;;;1.85;;
57067;SDS011;43391;47.448;18.904;2022-09-28T05:31:13;7.40;;;2.03;;
57067;SDS011;43391;47.448;18.904;2022-09-28T05:33:39;4.70;;;1.80;;
57067;SDS011;43391;47.448;18.904;2022-09-28T05:36:06;5.13;;;2.22;;
57067;SDS011;43391;47.448;18.904;2022-09-28T05:38:32;3.70;;;2.20;;
57067;SDS011;43391;47.448;18.904;2022-09-28T05:40:58;6.03;;;3.00;;
57067;SDS011;43391;47.448;18.904;2022-09-28T05:43:23;4.60;;;2.03;;
57067;SDS011;43391;47.448;18.904;2022-09-28T05:45:49;3.50;;;1.95;;
57067;SDS011;43391;47.448;18.904;2022-09-28T05:48:14;3.40;;;2.05;;
57067;SDS011;43391;47.448;18.904;2022-09-28T05:50:40;3.50;;;1.60;;
57067;SDS011;43391;47.448;18.904;2022-09-28T05:53:06;4.90;;;1.73;;
57067;SDS011;43391;47.448;18.904;2022-09-28T05:55:33;4.75;;;2.03;;
57067;SDS011;43391;47.448;18.904;2022-09-28T05:58:00;3.42;;;1.98;;
57067;SDS011;43391;47.448;18.904;2022-09-28T06:00:27;4.28;;;2.03;;
57067;SDS011;43391;47.448;18.904;2022-09-28T06:02:54;5.53;;;4.50;;
57067;SDS011;43391;47.448;18.904;2022-09-28T06:05:20;6.88;;;4.18;;
57067;SDS011;43391;47.448;18.904;2022-09-28T06:07:46;4.60;;;1.90;;
57067;SDS011;43391;47.448;18.904;2022-09-28T06:10:11;3.95;;;1.63;;
57067;SDS011;43391;47.448;18.904;2022-09-28T06:12:36;4.05;;;2.25;;
57067;SDS011;43391;47.448;18.904;2022-09-28T06:15:02;1.98;;;1.48;;
57067;SDS011;43391;47.448;18.904;2022-09-28T06:17:27;3.65;;;1.63;;
57067;SDS011;43391;47.448;18.904;2022-09-28T06:19:53;3.92;;;1.42;;
57067;SDS011;43391;47.448;18.904;2022-09-28T06:22:18;5.63;;;1.55;;
57067;SDS011;43391;47.448;18.904;2022-09-28T06:24:43;6.22;;;1.73;;
57067;SDS011;43391;47.448;18.904;2022-09-28T06:27:09;9.93;;;1.63;;
57067;SDS011;43391;47.448;18.904;2022-09-28T06:29:34;2.15;;;1.30;;
57067;SDS011;43391;47.448;18.904;2022-09-28T06:31:59;1.70;;;1.27;;
57067;SDS011;43391;47.448;18.904;2022-09-28T06:34:25;3.45;;;1.15;;
57067;SDS011;43391;47.448;18.904;2022-09-28T06:36:50;1.70;;;1.08;;
57067;SDS011;43391;47.448;18.904;2022-09-28T06:39:16;5.78;;;4.38;;
57067;SDS011;43391;47.448;18.904;2022-09-28T06:41:41;7.20;;;4.20;;
57067;SDS011;43391;47.448;18.904;2022-09-28T06:44:07;2.05;;;1.85;;
57067;SDS011;43391;47.448;18.904;2022-09-28T06:46:32;3.22;;;1.70;;
57067;SDS011;43391;47.448;18.904;2022-09-28T06:48:58;3.33;;;1.30;;
57067;SDS011;43391;47.448;18.904;2022-09-28T06:51:23;3.47;;;1.25;;
57067;SDS011;43391;47.448;18.904;2022-09-28T06:53:49;1.77;;;1.13;;
57067;SDS011;43391;47.448;18.904;2022-09-28T06:56:17;4.32;;;1.45;;
57067;SDS011;43391;47.448;18.904;2022-09-28T06:58:45;1.10;;;0.85;;
57067;SDS011;43391;47.448;18.904;2022-09-28T07:01:10;1.45;;;0.90;;
57067;SDS011;43391;47.448;18.904;2022-09-28T07:03:36;0.75;;;0.75;;
57067;SDS011;43391;47.448;18.904;2022-09-28T07:06:01;1.77;;;1.15;;
57067;SDS011;43391;47.448;18.904;2022-09-28T07:08:28;2.60;;;1.30;;
57067;SDS011;43391;47.448;18.904;2022-09-28T07:10:53;1.63;;;1.15;;
57067;SDS011;43391;47.448;18.904;2022-09-28T07:13:20;3.00;;;0.90;;
57067;SDS011;43391;47.448;18.904;2022-09-28T07:15:55;2.55;;;1.13;;
57067;SDS011;43391;47.448;18.904;2022-09-28T07:18:21;1.33;;;1.08;;
57067;SDS011;43391;47.448;18.904;2022-09-28T07:20:48;1.73;;;1.15;;
57067;SDS011;43391;47.448;18.904;2022-09-28T07:23:14;3.40;;;1.02;;
57067;SDS011;43391;47.448;18.904;2022-09-28T07:25:39;1.58;;;1.13;;
57067;SDS011;43391;47.448;18.904;2022-09-28T07:28:09;1.55;;;1.17;;
57067;SDS011;43391;47.448;18.904;2022-09-28T07:30:35;3.50;;;1.10;;
57067;SDS011;43391;47.448;18.904;2022-09-28T07:33:01;0.93;;;0.75;;
57067;SDS011;43391;47.448;18.904;2022-09-28T07:35:28;1.20;;;1.10;;
57067;SDS011;43391;47.448;18.904;2022-09-28T07:38:00;1.75;;;1.00;;
57067;SDS011;43391;47.448;18.904;2022-09-28T07:40:27;1.02;;;0.93;;
57067;SDS011;43391;47.448;18.904;2022-09-28T07:43:12;1.25;;;1.20;;
57067;SDS011;43391;47.448;18.904;2022-09-28T07:45:39;2.92;;;1.52;;
57067;SDS011;43391;47.448;18.904;2022-09-28T07:48:06;2.05;;;1.63;;
57067;SDS011;43391;47.448;18.904;2022-09-28T07:50:32;4.60;;;1.98;;
57067;SDS011;43391;47.448;18.904;2022-09-28T07:52:57;3.80;;;2.15;;
57067;SDS011;43391;47.448;18.904;2022-09-28T07:55:24;3.38;;;2.28;;
57067;SDS011;43391;47.448;18.904;2022-09-28T07:57:56;2.95;;;2.10;;
57067;SDS011;43391;47.448;18.904;2022-09-28T08:00:28;4.15;;;1.80;;
57067;SDS011;43391;47.448;18.904;2022-09-28T08:02:59;2.33;;;1.77;;
57067;SDS011;43391;47.448;18.904;2022-09-28T08:05:28;4.10;;;2.05;;
57067;SDS011;43391;47.448;18.904;2022-09-28T08:07:55;4.70;;;2.30;;
57067;SDS011;43391;47.448;18.904;2022-09-28T08:10:22;2.58;;;1.70;;
57067;SDS011;43391;47.448;18.904;2022-09-28T08:12:48;5.05;;;1.98;;
57067;SDS011;43391;47.448;18.904;2022-09-28T08:15:18;2.75;;;1.80;;
57067;SDS011;43391;47.448;18.904;2022-09-28T08:17:45;4.82;;;1.77;;
57067;SDS011;43391;47.448;18.904;2022-09-28T08:20:11;3.30;;;1.98;;
57067;SDS011;43391;47.448;18.904;2022-09-28T08:23:01;2.90;;;1.80;;
57067;SDS011;43391;47.448;18.904;2022-09-28T08:25:31;3.80;;;1.90;;
57067;SDS011;43391;47.448;18.904;2022-09-28T08:27:57;2.10;;;1.38;;
57067;SDS011;43391;47.448;18.904;2022-09-28T08:30:22;3.20;;;1.60;;
57067;SDS011;43391;47.448;18.904;2022-09-28T08:32:48;5.20;;;1.80;;
57067;SDS011;43391;47.448;18.904;2022-09-28T08:35:14;3.38;;;1.70;;
57067;SDS011;43391;47.448;18.904;2022-09-28T08:37:39;2.10;;;1.77;;
57067;SDS011;43391;47.448;18.904;2022-09-28T08:40:05;3.60;;;1.67;;
57067;SDS011;43391;47.448;18.904;2022-09-28T08:42:41;2.40;;;1.80;;
57067;SDS011;43391;47.448;18.904;2022-09-28T08:45:17;2.72;;;1.42;;
57067;SDS011;43391;47.448;18.904;2022-09-28T08:50:55;3.40;;;2.05;;
57067;SDS011;43391;47.448;18.904;2022-09-28T08:53:35;4.05;;;2.10;;
57067;SDS011;43391;47.448;18.904;2022-09-28T08:56:06;2.40;;;1.90;;
57067;SDS011;43391;47.448;18.904;2022-09-28T08:58:40;3.42;;;2.25;;
57067;SDS011;43391;47.448;18.904;2022-09-28T09:01:10;4.00;;;2.33;;
57067;SDS011;43391;47.448;18.904;2022-09-28T09:03:40;3.33;;;2.00;;
57067;SDS011;43391;47.448;18.904;2022-09-28T09:12:07;3.70;;;2.15;;
57067;SDS011;43391;47.448;18.904;2022-09-28T09:14:53;4.10;;;2.63;;
57067;SDS011;43391;47.448;18.904;2022-09-28T09:17:37;5.35;;;2.80;;
57067;SDS011;43391;47.448;18.904;2022-09-28T09:20:30;3.80;;;2.92;;
57067;SDS011;43391;47.448;18.904;2022-09-28T09:23:15;4.03;;;2.30;;
57067;SDS011;43391;47.448;18.904;2022-09-28T09:28:20;2.20;;;1.90;;
57067;SDS011;43391;47.448;18.904;2022-09-28T09:30:59;3.33;;;1.80;;
57067;SDS011;43391;47.448;18.904;2022-09-28T09:33:57;3.78;;;2.20;;
57067;SDS011;43391;47.448;18.904;2022-09-28T09:39:24;2.45;;;1.95;;
57067;SDS011;43391;47.448;18.904;2022-09-28T09:42:05;3.08;;;2.10;;
57067;SDS011;43391;47.448;18.904;2022-09-28T09:44:40;4.13;;;2.38;;
57067;SDS011;43391;47.448;18.904;2022-09-28T09:47:18;3.33;;;2.10;;
57067;SDS011;43391;47.448;18.904;2022-09-28T09:50:11;2.65;;;1.90;;
57067;SDS011;43391;47.448;18.904;2022-09-28T09:52:45;6.13;;;2.30;;
57067;SDS011;43391;47.448;18.904;2022-09-28T09:55:21;3.83;;;1.70;;
57067;SDS011;43391;47.448;18.904;2022-09-28T09:57:57;3.08;;;1.90;;
57067;SDS011;43391;47.448;18.904;2022-09-28T10:00:47;2.85;;;1.73;;
57067;SDS011;43391;47.448;18.904;2022-09-28T10:03:22;2.30;;;1.80;;
57067;SDS011;43391;47.448;18.904;2022-09-28T10:05:57;5.95;;;2.00;;
57067;SDS011;43391;47.448;18.904;2022-09-28T10:08:28;2.42;;;1.80;;
57067;SDS011;43391;47.448;18.904;2022-09-28T10:13:26;1.48;;;1.38;;
57067;SDS011;43391;47.448;18.904;2022-09-28T10:15:53;1.90;;;1.50;;
57067;SDS011;43391;47.448;18.904;2022-09-28T10:18:19;2.17;;;1.38;;
57067;SDS011;43391;47.448;18.904;2022-09-28T10:20:45;4.22;;;1.73;;
57067;SDS011;43391;47.448;18.904;2022-09-28T10:23:21;3.35;;;1.20;;
57067;SDS011;43391;47.448;18.904;2022-09-28T10:25:50;1.88;;;1.67;;
57067;SDS011;43391;47.448;18.904;2022-09-28T10:28:20;1.63;;;1.52;;
57067;SDS011;43391;47.448;18.904;2022-09-28T10:30:55;3.00;;;1.60;;
57067;SDS011;43391;47.448;18.904;2022-09-28T10:33:31;2.35;;;1.70;;
57067;SDS011;43391;47.448;18.904;2022-09-28T10:36:01;2.00;;;1.50;;
57067;SDS011;43391;47.448;18.904;2022-09-28T10:38:30;2.25;;;1.50;;
57067;SDS011;43391;47.448;18.904;2022-09-28T10:40:58;7.57;;;2.03;;
57067;SDS011;43391;47.448;18.904;2022-09-28T10:48:30;2.25;;;1.50;;
57067;SDS011;43391;47.448;18.904;2022-09-28T10:51:10;2.15;;;1.30;;
57067;SDS011;43391;47.448;18.904;2022-09-28T10:53:35;3.75;;;2.10;;
57067;SDS011;43391;47.448;18.904;2022-09-28T10:56:06;2.53;;;1.35;;
57067;SDS011;43391;47.448;18.904;2022-09-28T10:58:42;1.35;;;1.25;;
57067;SDS011;43391;47.448;18.904;2022-09-28T11:01:18;4.63;;;2.03;;
57067;SDS011;43391;47.448;18.904;2022-09-28T11:03:54;3.35;;;1.20;;
57067;SDS011;43391;47.448;18.904;2022-09-28T11:06:23;4.47;;;1.83;;
57067;SDS011;43391;47.448;18.904;2022-09-28T11:08:54;4.65;;;1.80;;
57067;SDS011;43391;47.448;18.904;2022-09-28T11:11:24;3.55;;;1.60;;
57067;SDS011;43391;47.448;18.904;2022-09-28T11:13:51;2.90;;;1.40;;
57067;SDS011;43391;47.448;18.904;2022-09-28T11:18:47;3.17;;;1.50;;
57067;SDS011;43391;47.448;18.904;2022-09-28T11:21:14;5.95;;;1.67;;
57067;SDS011;43391;47.448;18.904;2022-09-28T11:23:54;1.77;;;1.50;;
57067;SDS011;43391;47.448;18.904;2022-09-28T11:26:25;2.33;;;1.73;;
57067;SDS011;43391;47.448;18.904;2022-09-28T11:28:52;7.70;;;2.08;;
57067;SDS011;43391;47.448;18.904;2022-09-28T11:31:23;2.92;;;1.40;;
57067;SDS011;43391;47.448;18.904;2022-09-28T11:33:51;1.38;;;1.27;;
57067;SDS011;43391;47.448;18.904;2022-09-28T11:36:32;2.72;;;1.50;;
57067;SDS011;43391;47.448;18.904;2022-09-28T11:42:19;2.42;;;1.70;;
57067;SDS011;43391;47.448;18.904;2022-09-28T11:52:56;2.88;;;1.42;;
57067;SDS011;43391;47.448;18.904;2022-09-28T11:55:35;3.78;;;1.88;;
57067;SDS011;43391;47.448;18.904;2022-09-28T12:00:45;3.63;;;1.70;;
57067;SDS011;43391;47.448;18.904;2022-09-28T12:03:16;2.08;;;1.55;;
57067;SDS011;43391;47.448;18.904;2022-09-28T12:08:27;1.60;;;1.50;;
57067;SDS011;43391;47.448;18.904;2022-09-28T12:11:00;2.08;;;1.40;;
57067;SDS011;43391;47.448;18.904;2022-09-28T12:13:44;2.88;;;1.40;;
57067;SDS011;43391;47.448;18.904;2022-09-28T12:16:29;2.63;;;1.75;;
57067;SDS011;43391;47.448;18.904;2022-09-28T12:21:47;4.15;;;1.50;;
57067;SDS011;43391;47.448;18.904;2022-09-28T12:24:20;4.45;;;1.65;;
57067;SDS011;43391;47.448;18.904;2022-09-28T12:27:26;3.13;;;1.58;;
57067;SDS011;43391;47.448;18.904;2022-09-28T12:32:40;3.60;;;2.13;;
57067;SDS011;43391;47.448;18.904;2022-09-28T12:38:29;3.28;;;1.95;;
57067;SDS011;43391;47.448;18.904;2022-09-28T12:52:40;2.97;;;1.88;;
57067;SDS011;43391;47.448;18.904;2022-09-28T13:06:54;6.63;;;2.05;;
57067;SDS011;43391;47.448;18.904;2022-09-28T13:09:14;1.67;;;1.58;;
57067;SDS011;43391;47.448;18.904;2022-09-28T13:22:03;4.78;;;1.83;;
57067;SDS011;43391;47.448;18.904;2022-09-28T13:24:46;2.15;;;1.60;;
57067;SDS011;43391;47.448;18.904;2022-09-28T13:27:14;4.70;;;1.73;;
57067;SDS011;43391;47.448;18.904;2022-09-28T13:29:47;6.82;;;2.15;;
57067;SDS011;43391;47.448;18.904;2022-09-28T13:32:15;1.50;;;1.38;;
57067;SDS011;43391;47.448;18.904;2022-09-28T13:34:42;5.38;;;1.52;;
57067;SDS011;43391;47.448;18.904;2022-09-28T13:42:09;1.90;;;1.25;;
57067;SDS011;43391;47.448;18.904;2022-09-28T13:50:13;2.80;;;1.40;;
57067;SDS011;43391;47.448;18.904;2022-09-28T13:55:38;4.05;;;1.50;;
57067;SDS011;43391;47.448;18.904;2022-09-28T13:58:13;3.80;;;1.80;;
57067;SDS011;43391;47.448;18.904;2022-09-28T14:03:42;4.53;;;1.50;;
57067;SDS011;43391;47.448;18.904;2022-09-28T14:06:30;3.70;;;1.77;;
57067;SDS011;43391;47.448;18.904;2022-09-28T14:11:52;4.05;;;1.38;;
57067;SDS011;43391;47.448;18.904;2022-09-28T14:19:49;2.40;;;1.33;;
57067;SDS011;43391;47.448;18.904;2022-09-28T14:22:21;3.55;;;1.30;;
57067;SDS011;43391;47.448;18.904;2022-09-28T14:28:04;2.45;;;1.25;;
57067;SDS011;43391;47.448;18.904;2022-09-28T14:33:14;1.38;;;1.20;;
57067;SDS011;43391;47.448;18.904;2022-09-28T14:35:53;2.03;;;1.17;;
57067;SDS011;43391;47.448;18.904;2022-09-28T14:38:21;5.57;;;1.60;;
57067;SDS011;43391;47.448;18.904;2022-09-28T14:41:12;5.37;;;1.57;;
57067;SDS011;43391;47.448;18.904;2022-09-28T14:44:05;2.33;;;1.20;;
57067;SDS011;43391;47.448;18.904;2022-09-28T14:46:39;8.15;;;1.83;;
57067;SDS011;43391;47.448;18.904;2022-09-28T14:54:21;5.18;;;1.30;;
57067;SDS011;43391;47.448;18.904;2022-09-28T14:59:39;3.67;;;1.50;;
57067;SDS011;43391;47.448;18.904;2022-09-28T15:04:33;4.13;;;1.63;;
57067;SDS011;43391;47.448;18.904;2022-09-28T15:07:03;6.28;;;2.08;;
57067;SDS011;43391;47.448;18.904;2022-09-28T15:09:33;5.35;;;2.90;;
57067;SDS011;43391;47.448;18.904;2022-09-28T15:12:01;7.05;;;3.83;;
57067;SDS011;43391;47.448;18.904;2022-09-28T15:14:45;3.38;;;2.20;;
57067;SDS011;43391;47.448;18.904;2022-09-28T15:17:27;10.93;;;2.53;;
57067;SDS011;43391;47.448;18.904;2022-09-28T15:22:45;9.63;;;2.50;;
57067;SDS011;43391;47.448;18.904;2022-09-28T15:25:19;4.35;;;2.80;;
57067;SDS011;43391;47.448;18.904;2022-09-28T15:27:49;2.22;;;1.80;;
57067;SDS011;43391;47.448;18.904;2022-09-28T15:30:21;4.40;;;2.00;;
57067;SDS011;43391;47.448;18.904;2022-09-28T15:32:51;3.65;;;2.70;;
57067;SDS011;43391;47.448;18.904;2022-09-28T15:35:22;4.13;;;2.60;;
57067;SDS011;43391;47.448;18.904;2022-09-28T15:37:50;6.03;;;2.83;;
57067;SDS011;43391;47.448;18.904;2022-09-28T15:40:32;4.35;;;2.22;;
57067;SDS011;43391;47.448;18.904;2022-09-28T15:43:01;9.82;;;3.10;;
57067;SDS011;43391;47.448;18.904;2022-09-28T15:45:44;7.00;;;3.15;;
57067;SDS011;43391;47.448;18.904;2022-09-28T15:51:26;6.28;;;4.03;;
57067;SDS011;43391;47.448;18.904;2022-09-28T15:53:54;18.50;;;14.27;;
57067;SDS011;43391;47.448;18.904;2022-09-28T15:56:23;13.05;;;9.65;;
57067;SDS011;43391;47.448;18.904;2022-09-28T16:01:34;6.68;;;3.90;;
57067;SDS011;43391;47.448;18.904;2022-09-28T16:07:29;8.43;;;4.40;;
57067;SDS011;43391;47.448;18.904;2022-09-28T16:17:53;11.40;;;4.07;;
57067;SDS011;43391;47.448;18.904;2022-09-28T16:20:24;5.47;;;3.38;;
57067;SDS011;43391;47.448;18.904;2022-09-28T16:22:55;6.68;;;4.13;;
57067;SDS011;43391;47.448;18.904;2022-09-28T16:25:24;14.07;;;4.50;;
57067;SDS011;43391;47.448;18.904;2022-09-28T16:27:51;6.50;;;3.97;;
57067;SDS011;43391;47.448;18.904;2022-09-28T16:32:56;7.80;;;4.60;;
57067;SDS011;43391;47.448;18.904;2022-09-28T16:35:30;7.20;;;4.63;;
57067;SDS011;43391;47.448;18.904;2022-09-28T16:37:58;7.53;;;4.43;;
57067;SDS011;43391;47.448;18.904;2022-09-28T16:40:28;8.25;;;4.28;;
57067;SDS011;43391;47.448;18.904;2022-09-28T16:42:57;9.80;;;5.30;;
57067;SDS011;43391;47.448;18.904;2022-09-28T16:45:25;9.95;;;5.63;;
57067;SDS011;43391;47.448;18.904;2022-09-28T16:47:53;11.38;;;5.53;;
57067;SDS011;43391;47.448;18.904;2022-09-28T16:50:20;15.27;;;6.63;;
57067;SDS011;43391;47.448;18.904;2022-09-28T16:52:57;14.18;;;6.68;;
57067;SDS011;43391;47.448;18.904;2022-09-28T16:55:42;10.07;;;5.70;;
57067;SDS011;43391;47.448;18.904;2022-09-28T16:58:15;12.98;;;6.63;;
57067;SDS011;43391;47.448;18.904;2022-09-28T17:00:41;10.82;;;6.35;;
57067;SDS011;43391;47.448;18.904;2022-09-28T17:03:14;13.50;;;5.95;;
57067;SDS011;43391;47.448;18.904;2022-09-28T17:05:44;9.55;;;5.40;;
57067;SDS011;43391;47.448;18.904;2022-09-28T17:08:12;7.15;;;5.20;;
57067;SDS011;43391;47.448;18.904;2022-09-28T17:13:16;8.25;;;5.53;;
57067;SDS011;43391;47.448;18.904;2022-09-28T17:15:42;6.70;;;4.57;;
57067;SDS011;43391;47.448;18.904;2022-09-28T17:18:15;6.15;;;5.00;;
57067;SDS011;43391;47.448;18.904;2022-09-28T17:20:43;10.85;;;6.85;;
57067;SDS011;43391;47.448;18.904;2022-09-28T17:23:12;7.93;;;5.88;;
57067;SDS011;43391;47.448;18.904;2022-09-28T17:25:39;9.18;;;5.68;;
57067;SDS011;43391;47.448;18.904;2022-09-28T17:28:05;9.73;;;5.47;;
57067;SDS011;43391;47.448;18.904;2022-09-28T17:30:43;15.50;;;5.28;;
57067;SDS011;43391;47.448;18.904;2022-09-28T17:33:11;7.90;;;5.20;;
57067;SDS011;43391;47.448;18.904;2022-09-28T17:35:37;9.40;;;5.90;;
57067;SDS011;43391;47.448;18.904;2022-09-28T17:38:03;10.38;;;6.93;;
57067;SDS011;43391;47.448;18.904;2022-09-28T17:40:28;13.15;;;7.68;;
57067;SDS011;43391;47.448;18.904;2022-09-28T17:42:54;11.68;;;8.18;;
57067;SDS011;43391;47.448;18.904;2022-09-28T17:45:24;13.07;;;7.57;;
57067;SDS011;43391;47.448;18.904;2022-09-28T17:47:53;11.13;;;6.88;;
57067;SDS011;43391;47.448;18.904;2022-09-28T17:50:20;8.50;;;5.72;;
57067;SDS011;43391;47.448;18.904;2022-09-28T17:52:48;10.02;;;5.40;;
57067;SDS011;43391;47.448;18.904;2022-09-28T17:55:18;8.13;;;5.70;;
57067;SDS011;43391;47.448;18.904;2022-09-28T17:57:44;8.82;;;5.95;;
57067;SDS011;43391;47.448;18.904;2022-09-28T18:00:10;10.48;;;5.65;;